Time;durP1;ratioP1;P1;durP2;ratioP2;P2;SDS_P1;SDS_P2;PMS_P1;PMS_P2;Temp;Humidity;BMP_temperature;BMP_pressure;BME280_temperature;BME280_humidity;BME280_pressure;Samples;Min_cycle;Max_cycle;Signal;HPM_P1;HPM_P2
2023/04/02 00:01:32;;;;;;;;;;;;;;;2.53;83.31;100861.18;109012;1253;126212;-80
2023/04/02 00:03:59;;;;;;;;;;;;;;;2.48;83.42;100863.68;109062;1253;60128;-81
2023/04/02 00:06:29;;;;;;;;;;;;;;;2.47;83.27;100864.48;109056;1254;75998;-82
2023/04/02 00:08:58;;;;;;;;;;;;;;;2.48;83.22;100866.25;108265;1259;124895;-82
2023/04/02 00:11:34;;;;;;;;;;;;;;;2.47;83.30;100866.59;108059;1254;72457;-82
2023/04/02 00:14:01;;;;;;;;;;;;;;;2.46;83.26;100875.17;108066;1255;125480;-81
2023/04/02 00:16:28;;;;;;;;;;;;;;;2.46;83.47;100870.33;108188;1253;63023;-81
2023/04/02 00:18:55;;;;;;;;;;;;;;;2.47;83.26;100881.83;108134;1256;73831;-80
2023/04/02 00:21:24;;;;;;;;;;;;;;;2.49;83.31;100877.73;107942;1254;126234;-79
2023/04/02 00:23:55;;;;;;;;;;;;;;;2.51;83.26;100880.11;108902;1258;72699;-79
2023/04/02 00:26:24;;;;;;;;;;;;;;;2.54;83.23;100891.58;108967;1255;125175;-79
2023/04/02 00:28:51;;;;;;;;;;;;;;;2.54;83.08;100889.67;109095;1258;60327;-79
2023/04/02 00:31:18;;;;;;;;;;;;;;;2.55;83.11;100895.77;108841;1254;125558;-79
2023/04/02 00:33:45;;;;;;;;;;;;;;;2.57;83.13;100902.43;108958;1254;67660;-79
2023/04/02 00:36:14;;;;;;;;;;;;;;;2.57;82.82;100898.81;108911;1260;71209;-79
2023/04/02 00:38:42;;;;;;;;;;;;;;;2.55;82.75;100904.12;109033;1254;136991;-79
2023/04/02 00:41:12;;;;;;;;;;;;;;;2.56;82.85;100908.98;109010;1255;59867;-79
2023/04/02 00:43:43;;;;;;;;;;;;;;;2.53;82.72;100909.55;108887;1253;125589;-79
2023/04/02 00:46:12;;;;;;;;;;;;;;;2.50;82.62;100910.70;108888;1253;66915;-79
2023/04/02 00:48:53;;;;;;;;;;;;;;;2.46;82.56;100912.02;108931;1262;73372;-79
2023/04/02 00:51:20;;;;;;;;;;;;;;;2.39;82.56;100911.27;108900;1260;125356;-79
2023/04/02 00:53:47;;;;;;;;;;;;;;;2.32;82.41;100925.77;109096;1254;60077;-78
2023/04/02 00:56:30;;;;;;;;;;;;;;;2.29;82.39;100921.55;108972;1258;124774;-78
2023/04/02 00:58:57;;;;;;;;;;;;;;;2.20;82.38;100911.66;108996;1259;66901;-77
2023/04/02 01:01:28;;;;;;;;;;;;;;;2.14;82.51;100913.09;109019;1255;125587;-77
2023/04/02 01:04:00;;;;;;;;;;;;;;;2.13;82.51;100914.55;108938;1254;60220;-77
2023/04/02 01:06:34;;;;;;;;;;;;;;;2.14;82.48;100909.94;108934;1254;60556;-77
2023/04/02 01:09:13;;;;;;;;;;;;;;;2.19;82.30;100920.26;108893;1254;125670;-78
2023/04/02 01:11:58;;;;;;;;;;;;;;;2.25;82.10;100914.05;108957;1254;65769;-78
2023/04/02 01:14:25;;;;;;;;;;;;;;;2.34;81.95;100915.80;109011;1254;124850;-79
2023/04/02 01:17:04;;;;;;;;;;;;;;;2.43;81.56;100918.45;109097;1254;60015;-78
2023/04/02 01:19:51;;;;;;;;;;;;;;;2.50;81.23;100921.98;108881;1254;124742;-78
2023/04/02 01:22:18;;;;;;;;;;;;;;;2.52;81.26;100927.85;109109;1257;73887;-78
2023/04/02 01:24:45;;;;;;;;;;;;;;;2.52;81.01;100927.16;109130;1257;67088;-78
2023/04/02 01:27:22;;;;;;;;;;;;;;;2.52;81.03;100936.49;109026;1254;125453;-78
2023/04/02 01:29:56;;;;;;;;;;;;;;;2.50;80.77;100941.90;108988;1254;60541;-78
2023/04/02 01:32:24;;;;;;;;;;;;;;;2.44;80.79;100940.52;108851;1254;125261;-78
2023/04/02 01:34:51;;;;;;;;;;;;;;;2.35;80.86;100941.85;109021;1255;75799;-78
2023/04/02 01:37:21;;;;;;;;;;;;;;;2.21;81.22;100947.05;108994;1260;67015;-78
2023/04/02 01:39:48;;;;;;;;;;;;;;;2.08;81.61;100950.44;108998;1253;72358;-78
2023/04/02 01:42:17;;;;;;;;;;;;;;;1.99;81.96;100948.98;109042;1254;60095;-78
2023/04/02 01:44:51;;;;;;;;;;;;;;;1.92;81.98;100956.36;108768;1254;125439;-78
2023/04/02 01:47:20;;;;;;;;;;;;;;;1.92;82.25;100956.52;108900;1254;74465;-78
2023/04/02 01:49:47;;;;;;;;;;;;;;;1.96;82.45;100956.38;108825;1254;125118;-78
2023/04/02 01:52:16;;;;;;;;;;;;;;;2.02;82.45;100958.84;108941;1254;71144;-78
2023/04/02 01:54:43;;;;;;;;;;;;;;;2.08;82.32;100963.22;108943;1254;59929;-78
2023/04/02 01:57:10;;;;;;;;;;;;;;;2.14;82.14;100966.92;108939;1257;124797;-78
2023/04/02 01:59:37;;;;;;;;;;;;;;;2.21;82.09;100968.55;108869;1254;74580;-78
2023/04/02 02:02:05;;;;;;;;;;;;;;;2.27;81.97;100974.45;108779;1254;125220;-78
2023/04/02 02:04:52;;;;;;;;;;;;;;;2.31;81.94;100984.42;108959;1254;73467;-79
2023/04/02 02:07:19;;;;;;;;;;;;;;;2.34;82.12;100984.58;109014;1254;126120;-78
2023/04/02 02:09:46;;;;;;;;;;;;;;;2.31;82.27;100999.30;109108;1257;61406;-79
2023/04/02 02:12:13;;;;;;;;;;;;;;;2.25;82.32;100990.62;108960;1253;75965;-79
2023/04/02 02:14:49;;;;;;;;;;;;;;;2.16;82.38;100987.08;109032;1254;125229;-79
2023/04/02 02:17:20;;;;;;;;;;;;;;;2.08;82.77;100999.57;108979;1254;73122;-79
2023/04/02 02:19:48;;;;;;;;;;;;;;;2.06;82.81;100999.11;108873;1254;125157;-79
2023/04/02 02:22:28;;;;;;;;;;;;;;;2.04;82.62;101000.40;108976;1258;60653;-79
2023/04/02 02:24:56;;;;;;;;;;;;;;;2.07;82.53;101004.20;109014;1253;74271;-79
2023/04/02 02:27:23;;;;;;;;;;;;;;;2.11;82.38;101008.08;108833;1254;124961;-79
2023/04/02 02:29:51;;;;;;;;;;;;;;;2.12;82.17;101016.27;109042;1254;71597;-79
2023/04/02 02:32:19;;;;;;;;;;;;;;;2.10;81.95;101022.43;108801;1254;124835;-78
2023/04/02 02:34:48;;;;;;;;;;;;;;;2.10;81.92;101030.56;108958;1254;60059;-79
2023/04/02 02:37:20;;;;;;;;;;;;;;;2.07;81.94;101025.65;108918;1254;75695;-79
2023/04/02 02:39:47;;;;;;;;;;;;;;;1.98;81.96;101032.52;109066;1253;65792;-79
2023/04/02 02:42:17;;;;;;;;;;;;;;;1.92;82.15;101025.40;109077;1254;72731;-79
2023/04/02 02:44:45;;;;;;;;;;;;;;;1.89;82.60;101024.16;108938;1254;125283;-78
2023/04/02 02:47:19;;;;;;;;;;;;;;;1.87;82.68;101020.59;108735;1257;60374;-78
2023/04/02 02:49:48;;;;;;;;;;;;;;;1.88;82.68;101024.29;108771;1254;125323;-78
2023/04/02 02:52:19;;;;;;;;;;;;;;;1.91;82.93;101023.61;108853;1254;67557;-78
2023/04/02 02:55:06;;;;;;;;;;;;;;;1.97;82.86;101021.92;108933;1254;71426;-78
2023/04/02 02:58:05;;;;;;;;;;;;;;;2.06;82.84;101028.35;108381;1264;60276;-78
2023/04/02 03:00:34;;;;;;;;;;;;;;;2.13;82.66;101032.45;108363;1264;60435;-78
2023/04/02 03:03:01;;;;;;;;;;;;;;;2.21;82.52;101033.66;108355;1263;125555;-79
2023/04/02 03:05:28;;;;;;;;;;;;;;;2.29;82.45;101037.27;108456;1264;65779;-79
2023/04/02 03:07:55;;;;;;;;;;;;;;;2.37;82.22;101048.99;108340;1263;125745;-79
2023/04/02 03:10:33;;;;;;;;;;;;;;;2.43;81.87;101041.79;108472;1264;60428;-79
2023/04/02 03:13:11;;;;;;;;;;;;;;;2.47;81.60;101034.25;108418;1262;60642;-79
2023/04/02 03:15:45;;;;;;;;;;;;;;;2.51;81.61;101046.80;108324;1263;123916;-79
2023/04/02 03:18:13;;;;;;;;;;;;;;;2.56;81.22;101049.01;108509;1262;66832;-79
2023/04/02 03:21:07;;;;;;;;;;;;;;;2.59;81.25;101053.30;108289;1264;124948;-79
2023/04/02 03:23:34;;;;;;;;;;;;;;;2.61;80.93;101057.41;108253;1264;60876;-79
2023/04/02 03:26:06;;;;;;;;;;;;;;;2.63;80.77;101058.91;108352;1263;124936;-79
2023/04/02 03:28:36;;;;;;;;;;;;;;;2.65;80.91;101070.70;108462;1263;75276;-79
2023/04/02 03:31:25;;;;;;;;;;;;;;;2.69;80.88;101069.17;108488;1264;66105;-79
2023/04/02 03:33:59;;;;;;;;;;;;;;;2.73;80.81;101076.38;108443;1264;71396;-79
2023/04/02 03:36:45;;;;;;;;;;;;;;;2.76;80.64;101077.23;108869;1254;60360;-79
2023/04/02 03:39:15;;;;;;;;;;;;;;;2.77;80.21;101079.05;108895;1253;125813;-80
2023/04/02 03:41:44;;;;;;;;;;;;;;;2.78;80.16;101079.64;109160;1253;74356;-80
2023/04/02 03:44:31;;;;;;;;;;;;;;;2.79;79.95;101083.64;108821;1253;124697;-79
2023/04/02 03:47:00;;;;;;;;;;;;;;;2.80;79.98;101093.43;109090;1253;72750;-80
2023/04/02 03:49:38;;;;;;;;;;;;;;;2.82;79.91;101097.35;108786;1254;124932;-80
2023/04/02 03:52:08;;;;;;;;;;;;;;;2.84;79.76;101101.15;109145;1254;60066;-80
2023/04/02 03:54:35;;;;;;;;;;;;;;;2.85;79.61;101100.18;108461;1253;73878;-80
2023/04/02 03:57:02;;;;;;;;;;;;;;;2.86;79.36;101107.16;107804;1254;125015;-79
2023/04/02 03:59:40;;;;;;;;;;;;;;;2.84;79.26;101114.17;108372;1254;70586;-79
2023/04/02 04:02:25;;;;;;;;;;;;;;;2.85;79.02;101119.71;108230;1254;125905;-79
2023/04/02 04:04:52;;;;;;;;;;;;;;;2.83;79.05;101120.63;108530;1253;60429;-79
2023/04/02 04:07:30;;;;;;;;;;;;;;;2.83;79.17;101127.41;108329;1253;74748;-79
2023/04/02 04:09:57;;;;;;;;;;;;;;;2.86;79.24;101128.78;108122;1253;65788;-79
2023/04/02 04:12:27;;;;;;;;;;;;;;;2.87;79.15;101139.09;108989;1254;72679;-79
2023/04/02 04:14:56;;;;;;;;;;;;;;;2.85;78.94;101140.56;109068;1253;124722;-79
2023/04/02 04:17:29;;;;;;;;;;;;;;;2.85;79.07;101140.20;109005;1253;60131;-78
2023/04/02 04:20:16;;;;;;;;;;;;;;;2.87;78.95;101148.42;108893;1254;125524;-79
2023/04/02 04:22:43;;;;;;;;;;;;;;;2.87;78.85;101160.80;108995;1253;65948;-79
2023/04/02 04:25:17;;;;;;;;;;;;;;;2.87;78.68;101166.11;109079;1254;72691;-79
2023/04/02 04:27:52;;;;;;;;;;;;;;;2.85;78.61;101160.83;108955;1254;125824;-80
2023/04/02 04:30:19;;;;;;;;;;;;;;;2.85;78.61;101169.02;109074;1253;60648;-78
2023/04/02 04:32:50;;;;;;;;;;;;;;;2.86;78.49;101173.36;109073;1254;124745;-78
2023/04/02 04:35:23;;;;;;;;;;;;;;;2.86;78.25;101177.85;108920;1253;65928;-78
2023/04/02 04:37:57;;;;;;;;;;;;;;;2.84;78.04;101173.79;109049;1253;124178;-79
2023/04/02 04:40:28;;;;;;;;;;;;;;;2.84;78.33;101183.30;108969;1253;60061;-79
2023/04/02 04:42:55;;;;;;;;;;;;;;;2.83;78.35;101182.88;109056;1254;60127;-79
2023/04/02 04:45:37;;;;;;;;;;;;;;;2.84;78.42;101191.77;108945;1254;125850;-79
2023/04/02 04:48:04;;;;;;;;;;;;;;;2.83;78.48;101193.61;109074;1253;66145;-79
2023/04/02 04:50:32;;;;;;;;;;;;;;;2.85;78.44;101202.38;109106;1254;125248;-79
2023/04/02 04:53:13;;;;;;;;;;;;;;;2.87;78.21;101198.70;109094;1253;59779;-79
2023/04/02 04:55:42;;;;;;;;;;;;;;;2.87;78.03;101209.30;108869;1254;125573;-79
2023/04/02 04:58:23;;;;;;;;;;;;;;;2.88;78.09;101214.55;109023;1253;75515;-80
2023/04/02 05:00:52;;;;;;;;;;;;;;;2.90;77.99;101219.02;108923;1257;65827;-80
2023/04/02 05:03:25;;;;;;;;;;;;;;;2.91;77.84;101214.57;108754;1256;125684;-80
2023/04/02 05:05:52;;;;;;;;;;;;;;;2.90;77.91;101215.06;109045;1256;59976;-80
2023/04/02 05:08:20;;;;;;;;;;;;;;;2.92;77.70;101225.75;108954;1255;124588;-81
2023/04/02 05:10:47;;;;;;;;;;;;;;;2.93;77.85;101223.39;108786;1257;75338;-79
2023/04/02 05:13:16;;;;;;;;;;;;;;;2.93;77.57;101229.29;109026;1256;65771;-79
2023/04/02 05:15:43;;;;;;;;;;;;;;;2.92;77.64;101229.05;109000;1255;125516;-78
2023/04/02 05:18:27;;;;;;;;;;;;;;;2.93;77.67;101234.30;109014;1257;60137;-78
2023/04/02 05:20:57;;;;;;;;;;;;;;;2.96;77.73;101236.75;108739;1256;126701;-78
2023/04/02 05:23:28;;;;;;;;;;;;;;;3.00;77.65;101249.26;108823;1255;74179;-78
2023/04/02 05:25:54;;;;;;;;;;;;;;;3.00;77.67;101246.89;108755;1255;125130;-79
2023/04/02 05:28:27;;;;;;;;;;;;;;;3.04;77.78;101254.08;108196;1255;73468;-80
2023/04/02 05:31:00;;;;;;;;;;;;;;;3.04;77.60;101263.10;107526;1256;61691;-79
2023/04/02 05:33:28;;;;;;;;;;;;;;;3.04;77.37;101264.77;107680;1257;125604;-79
2023/04/02 05:36:05;;;;;;;;;;;;;;;3.04;77.32;101266.52;107798;1260;73998;-79
2023/04/02 05:38:32;;;;;;;;;;;;;;;3.04;77.41;101268.98;107834;1256;124904;-79
2023/04/02 05:41:07;;;;;;;;;;;;;;;3.04;77.46;101277.45;107856;1257;73295;-78
2023/04/02 05:43:34;;;;;;;;;;;;;;;3.05;77.28;101277.84;107745;1255;125062;-78
2023/04/02 05:46:06;;;;;;;;;;;;;;;3.03;77.48;101281.91;108053;1256;60868;-77
2023/04/02 05:48:38;;;;;;;;;;;;;;;3.04;77.56;101283.55;108765;1260;74175;-77
2023/04/02 05:51:06;;;;;;;;;;;;;;;3.06;77.60;101289.88;108891;1256;125020;-78
2023/04/02 05:53:37;;;;;;;;;;;;;;;3.05;77.38;101286.17;109011;1255;72856;-79
2023/04/02 05:56:06;;;;;;;;;;;;;;;3.06;77.51;101292.15;108969;1256;125060;-79
2023/04/02 05:58:35;;;;;;;;;;;;;;;3.10;77.75;101295.69;109083;1255;60424;-78
2023/04/02 06:01:16;;;;;;;;;;;;;;;3.13;77.55;101301.77;108833;1255;73887;-78
2023/04/02 06:03:45;;;;;;;;;;;;;;;3.13;77.41;101301.81;108909;1259;124912;-79
2023/04/02 06:06:24;;;;;;;;;;;;;;;3.15;77.40;101307.46;108888;1254;72761;-78
2023/04/02 06:08:54;;;;;;;;;;;;;;;3.17;77.52;101308.30;108969;1256;124650;-79
2023/04/02 06:11:23;;;;;;;;;;;;;;;3.21;77.51;101313.92;108853;1256;60620;-78
2023/04/02 06:13:50;;;;;;;;;;;;;;;3.21;77.21;101315.51;108788;1256;124899;-78
2023/04/02 06:16:17;;;;;;;;;;;;;;;3.21;77.26;101321.91;108896;1257;67122;-78
2023/04/02 06:18:44;;;;;;;;;;;;;;;3.22;77.46;101322.67;108783;1256;72677;-79
2023/04/02 06:21:11;;;;;;;;;;;;;;;3.26;77.40;101327.80;108207;1256;125172;-80
2023/04/02 06:23:57;;;;;;;;;;;;;;;3.30;77.48;101327.88;107685;1256;60784;-79
2023/04/02 06:26:28;;;;;;;;;;;;;;;3.35;77.46;101332.86;107951;1255;125951;-79
2023/04/02 06:28:58;;;;;;;;;;;;;;;3.38;77.16;101339.83;108273;1256;65469;-77
2023/04/02 06:31:31;;;;;;;;;;;;;;;3.39;76.91;101349.77;108032;1254;72912;-77
2023/04/02 06:33:59;;;;;;;;;;;;;;;3.42;76.72;101347.83;108086;1256;62222;-78
2023/04/02 06:36:26;;;;;;;;;;;;;;;3.43;76.60;101349.29;107627;1260;60205;-80
2023/04/02 06:38:54;;;;;;;;;;;;;;;3.46;76.58;101363.90;107581;1255;124326;-80
2023/04/02 06:41:22;;;;;;;;;;;;;;;3.48;76.63;101360.73;107825;1257;65801;-79
2023/04/02 06:43:52;;;;;;;;;;;;;;;3.48;76.30;101365.40;107868;1257;124938;-81
2023/04/02 06:46:30;;;;;;;;;;;;;;;3.50;76.68;101365.34;108062;1257;61958;-82
2023/04/02 06:49:06;;;;;;;;;;;;;;;3.55;76.30;101377.83;108075;1256;60162;-83
2023/04/02 06:51:33;;;;;;;;;;;;;;;3.53;76.34;101377.54;108935;1256;124927;-81
2023/04/02 06:54:00;;;;;;;;;;;;;;;3.54;76.39;101378.95;108907;1257;64605;-81
2023/04/02 06:56:44;;;;;;;;;;;;;;;3.55;76.43;101382.48;108774;1256;126174;-81
2023/04/02 06:59:11;;;;;;;;;;;;;;;3.58;76.49;101379.73;108860;1259;60059;-80
2023/04/02 07:01:55;;;;;;;;;;;;;;;3.61;76.51;101387.03;108702;1256;125535;-80
2023/04/02 07:04:22;;;;;;;;;;;;;;;3.67;76.27;101393.49;107842;1257;75745;-79
2023/04/02 07:06:50;;;;;;;;;;;;;;;3.71;76.03;101400.51;107905;1256;65121;-79
2023/04/02 07:09:17;;;;;;;;;;;;;;;3.78;76.08;101405.64;108008;1257;124667;-79
2023/04/02 07:11:45;;;;;;;;;;;;;;;3.87;76.09;101405.20;107936;1256;60434;-79
2023/04/02 07:14:24;;;;;;;;;;;;;;;3.97;76.04;101409.26;108715;1256;124398;-83
2023/04/02 07:16:51;;;;;;;;;;;;;;;4.04;75.72;101418.05;107769;1259;74201;-80
2023/04/02 07:19:19;;;;;;;;;;;;;;;4.11;75.39;101422.79;107661;1256;67103;-79
2023/04/02 07:21:46;;;;;;;;;;;;;;;4.24;75.68;101416.46;107780;1257;124959;-81
2023/04/02 07:24:13;;;;;;;;;;;;;;;4.43;75.75;101421.95;108022;1255;60521;-80
2023/04/02 07:26:40;;;;;;;;;;;;;;;4.59;75.57;101421.70;107779;1253;124977;-80
2023/04/02 07:29:12;;;;;;;;;;;;;;;4.69;74.96;101417.23;107674;1255;75629;-78
2023/04/02 07:31:39;;;;;;;;;;;;;;;4.67;74.26;101432.12;107593;1257;125522;-78
2023/04/02 07:34:06;;;;;;;;;;;;;;;4.62;74.00;101426.95;108892;1255;73797;-78
2023/04/02 07:36:34;;;;;;;;;;;;;;;4.58;73.74;101434.52;108990;1255;60152;-80
2023/04/02 07:39:01;;;;;;;;;;;;;;;4.57;73.93;101434.42;108787;1255;124406;-79
2023/04/02 07:41:28;;;;;;;;;;;;;;;4.57;74.17;101438.45;108849;1255;75321;-79
2023/04/02 07:43:55;;;;;;;;;;;;;;;4.54;73.68;101451.14;108970;1256;125199;-80
2023/04/02 07:46:24;;;;;;;;;;;;;;;4.48;73.69;101469.55;109079;1254;74089;-80
2023/04/02 07:48:51;;;;;;;;;;;;;;;4.43;73.67;101462.11;107827;1256;62254;-81
2023/04/02 07:51:22;;;;;;;;;;;;;;;4.44;73.80;101470.72;107644;1256;124937;-80
2023/04/02 07:53:50;;;;;;;;;;;;;;;4.46;73.82;101468.61;108433;1255;74589;-81
2023/04/02 07:56:17;;;;;;;;;;;;;;;4.42;73.36;101479.97;108291;1259;123914;-80
2023/04/02 07:58:44;;;;;;;;;;;;;;;4.36;73.35;101473.67;107764;1256;72737;-80
2023/04/02 08:01:16;;;;;;;;;;;;;;;4.35;73.54;101490.96;107708;1256;62743;-80
2023/04/02 08:03:43;;;;;;;;;;;;;;;4.31;73.42;101485.05;108092;1254;124855;-80
2023/04/02 08:06:11;;;;;;;;;;;;;;;4.30;73.27;101505.60;108211;1253;75471;-81
2023/04/02 08:08:38;;;;;;;;;;;;;;;4.28;73.41;101487.98;108064;1257;125379;-81
2023/04/02 08:11:05;;;;;;;;;;;;;;;4.31;73.29;101490.73;107997;1253;72693;-82
2023/04/02 08:13:32;;;;;;;;;;;;;;;4.28;72.97;101498.91;108241;1253;61363;-82
2023/04/02 08:16:00;;;;;;;;;;;;;;;4.28;73.19;101493.15;108404;1256;60670;-80
2023/04/02 08:18:29;;;;;;;;;;;;;;;4.29;73.20;101502.11;108099;1253;75744;-80
2023/04/02 08:20:56;;;;;;;;;;;;;;;4.32;73.52;101508.36;108010;1254;124657;-80
2023/04/02 08:23:23;;;;;;;;;;;;;;;4.37;73.50;101513.87;108292;1254;72711;-77
2023/04/02 08:25:50;;;;;;;;;;;;;;;4.46;73.35;101512.33;107983;1253;125164;-79
2023/04/02 08:28:17;;;;;;;;;;;;;;;4.49;73.17;101522.45;107882;1253;62995;-78
2023/04/02 08:30:45;;;;;;;;;;;;;;;4.51;73.04;101515.11;107900;1255;75683;-79
2023/04/02 08:33:12;;;;;;;;;;;;;;;4.54;72.81;101530.89;107850;1253;125247;-82
2023/04/02 08:35:39;;;;;;;;;;;;;;;4.53;72.46;101523.55;108142;1256;73121;-77
2023/04/02 08:38:06;;;;;;;;;;;;;;;4.51;72.06;101527.94;107948;1254;124231;-82
2023/04/02 08:40:36;;;;;;;;;;;;;;;4.45;71.93;101532.31;108040;1253;60125;-79
2023/04/02 08:43:22;;;;;;;;;;;;;;;4.44;71.86;101531.15;107826;1253;75533;-78
2023/04/02 08:45:58;;;;;;;;;;;;;;;4.41;71.52;101553.58;107820;1253;124955;-77
2023/04/02 08:48:25;;;;;;;;;;;;;;;4.41;71.55;101549.09;107876;1254;71425;-77
2023/04/02 08:50:52;;;;;;;;;;;;;;;4.44;71.35;101552.02;107567;1253;124249;-78
2023/04/02 08:53:20;;;;;;;;;;;;;;;4.51;71.39;101558.89;107792;1253;61119;-79
2023/04/02 08:55:51;;;;;;;;;;;;;;;4.55;71.43;101557.58;107936;1256;124260;-80
2023/04/02 08:58:26;;;;;;;;;;;;;;;4.64;71.78;101558.11;107885;1253;67063;-83
2023/04/02 09:00:54;;;;;;;;;;;;;;;4.78;71.72;101567.86;107968;1255;70438;-79
2023/04/02 09:03:24;;;;;;;;;;;;;;;4.81;71.27;101563.90;107807;1256;125580;-78
2023/04/02 09:05:51;;;;;;;;;;;;;;;4.89;71.27;101564.20;108128;1256;61051;-79
2023/04/02 09:08:19;;;;;;;;;;;;;;;5.02;70.89;101581.70;108109;1256;124308;-78
2023/04/02 09:10:52;;;;;;;;;;;;;;;5.08;70.31;101579.95;107829;1256;65736;-78
2023/04/02 09:13:23;;;;;;;;;;;;;;;5.02;69.69;101587.55;107914;1254;72989;-79
2023/04/02 09:15:52;;;;;;;;;;;;;;;5.04;70.01;101586.45;107714;1254;124414;-79
2023/04/02 09:18:19;;;;;;;;;;;;;;;5.19;70.34;101590.18;107913;1255;60140;-78
2023/04/02 09:20:48;;;;;;;;;;;;;;;5.36;69.63;101599.55;108709;1261;124438;-79
2023/04/02 09:23:21;;;;;;;;;;;;;;;5.48;69.57;101599.88;108937;1256;65510;-79
2023/04/02 09:25:53;;;;;;;;;;;;;;;5.54;68.90;101608.96;108732;1254;125176;-78
2023/04/02 09:28:22;;;;;;;;;;;;;;;5.51;68.46;101622.16;108939;1255;59895;-79
2023/04/02 09:31:08;;;;;;;;;;;;;;;5.53;68.39;101609.09;108837;1256;59831;-78
2023/04/02 09:33:48;;;;;;;;;;;;;;;5.64;68.29;101619.49;108786;1255;125047;-78
2023/04/02 09:36:34;;;;;;;;;;;;;;;5.68;67.70;101620.05;109081;1256;67067;-78
2023/04/02 09:39:05;;;;;;;;;;;;;;;5.71;67.26;101631.50;108415;1256;365473;-79
2023/04/02 09:41:34;;;;;;;;;;;;;;;5.74;67.38;101637.27;107872;1260;60868;-79
2023/04/02 09:44:20;;;;;;;;;;;;;;;5.79;67.61;101634.80;107822;1256;124942;-81
2023/04/02 09:47:03;;;;;;;;;;;;;;;5.85;67.09;101639.50;107788;1259;73767;-78
2023/04/02 09:49:31;;;;;;;;;;;;;;;6.02;67.50;101633.20;107822;1256;67132;-78
2023/04/02 09:52:15;;;;;;;;;;;;;;;6.18;67.04;101636.03;107945;1256;71429;-81
2023/04/02 09:54:42;;;;;;;;;;;;;;;6.14;65.92;101644.89;107933;1256;61962;-79
2023/04/02 09:57:26;;;;;;;;;;;;;;;6.00;65.89;101664.44;107512;1256;124894;-80
2023/04/02 10:00:12;;;;;;;;;;;;;;;5.88;65.67;101683.90;107688;1255;75842;-81
2023/04/02 10:02:40;;;;;;;;;;;;;;;5.75;65.57;101672.33;108827;1256;125256;-81
2023/04/02 10:05:16;;;;;;;;;;;;;;;5.60;65.50;101679.11;108978;1256;72096;-80
2023/04/02 10:07:43;;;;;;;;;;;;;;;5.49;65.90;101687.49;108470;1256;124559;-80
2023/04/02 10:10:13;;;;;;;;;;;;;;;5.38;65.48;101694.33;107762;1254;60879;-79
2023/04/02 10:12:40;;;;;;;;;;;;;;;5.22;65.54;101703.44;108036;1256;75513;-79
2023/04/02 10:15:11;;;;;;;;;;;;;;;5.10;65.57;101692.79;107839;1259;124067;-79
2023/04/02 10:17:41;;;;;;;;;;;;;;;4.95;65.33;101697.97;107834;1256;71726;-79
2023/04/02 10:20:16;;;;;;;;;;;;;;;4.72;64.81;101699.11;107860;1256;124349;-80
2023/04/02 10:22:42;;;;;;;;;;;;;;;4.49;64.30;101723.02;107617;1254;61357;-81
2023/04/02 10:25:13;;;;;;;;;;;;;;;4.37;64.71;101729.87;107923;1256;74392;-80
2023/04/02 10:27:46;;;;;;;;;;;;;;;4.30;64.52;101737.60;107874;1256;124099;-80
2023/04/02 10:30:38;;;;;;;;;;;;;;;4.27;65.10;101724.86;108139;1256;72612;-80
2023/04/02 10:33:07;;;;;;;;;;;;;;;4.37;65.97;101714.40;107801;1256;125022;-80
2023/04/02 10:36:01;;;;;;;;;;;;;;;4.43;65.11;101733.44;108029;1255;62111;-80
2023/04/02 10:38:28;;;;;;;;;;;;;;;4.34;64.25;101769.63;107313;1261;125880;-81
2023/04/02 10:40:58;;;;;;;;;;;;;;;4.31;64.30;101746.67;108476;1262;66927;-80
2023/04/02 10:43:44;;;;;;;;;;;;;;;4.28;64.28;101734.71;108500;1262;71364;-80
2023/04/02 10:46:42;;;;;;;;;;;;;;;4.25;64.10;101754.98;108620;1261;60177;-81
2023/04/02 10:49:21;;;;;;;;;;;;;;;4.24;64.27;101751.27;108168;1261;60184;-80
2023/04/02 10:51:59;;;;;;;;;;;;;;;4.26;64.22;101754.88;108474;1261;124284;-80
2023/04/02 10:54:26;;;;;;;;;;;;;;;4.28;63.87;101758.35;108581;1261;65717;-80
2023/04/02 10:56:55;;;;;;;;;;;;;;;4.32;63.52;101778.17;108500;1262;125200;-80
2023/04/02 10:59:23;;;;;;;;;;;;;;;4.32;63.32;101780.27;108293;1261;60881;-78
2023/04/02 11:01:50;;;;;;;;;;;;;;;4.36;63.46;101776.40;107123;1261;125066;-78
2023/04/02 11:04:19;;;;;;;;;;;;;;;4.45;63.65;101780.12;107455;1260;75461;-78
2023/04/02 11:06:47;;;;;;;;;;;;;;;4.52;62.53;101790.84;107547;1265;65835;-79
2023/04/02 11:09:17;;;;;;;;;;;;;;;4.50;61.96;101793.80;107474;1260;124346;-79
2023/04/02 11:11:44;;;;;;;;;;;;;;;4.44;61.91;101802.15;107391;1262;60508;-79
2023/04/02 11:14:13;;;;;;;;;;;;;;;4.38;61.73;101806.39;107406;1260;125081;-78
2023/04/02 11:16:40;;;;;;;;;;;;;;;4.33;62.20;101804.89;107818;1256;75468;-80
2023/04/02 11:19:14;;;;;;;;;;;;;;;4.45;62.53;101803.58;107844;1256;66947;-81
2023/04/02 11:21:42;;;;;;;;;;;;;;;4.55;62.02;101806.30;107733;1256;124053;-83
2023/04/02 11:24:28;;;;;;;;;;;;;;;4.51;62.42;101811.45;107617;1260;61259;-79
2023/04/02 11:27:13;;;;;;;;;;;;;;;4.56;62.90;101813.15;107672;1253;124304;-79
2023/04/02 11:29:44;;;;;;;;;;;;;;;4.63;62.28;101805.31;107946;1257;75286;-82
2023/04/02 11:32:12;;;;;;;;;;;;;;;4.57;62.02;101813.05;107755;1256;124326;-80
2023/04/02 11:34:39;;;;;;;;;;;;;;;4.58;62.43;101816.12;107888;1255;71382;-80
2023/04/02 11:37:28;;;;;;;;;;;;;;;4.62;61.96;101820.36;108005;1256;60413;-79
2023/04/02 11:40:18;;;;;;;;;;;;;;;4.58;61.92;101832.56;108304;1256;124103;-78
2023/04/02 11:42:46;;;;;;;;;;;;;;;4.56;61.80;101848.60;107802;1255;74349;-80
2023/04/02 11:45:40;;;;;;;;;;;;;;;4.53;61.47;101836.07;107654;1256;124562;-78
2023/04/02 11:48:28;;;;;;;;;;;;;;;4.44;61.07;101844.35;107105;1262;71497;-78
2023/04/02 11:50:56;;;;;;;;;;;;;;;4.45;61.93;101836.23;107023;1261;124676;-78
2023/04/02 11:53:29;;;;;;;;;;;;;;;4.47;62.07;101840.94;107244;1260;62880;-79
2023/04/02 11:56:04;;;;;;;;;;;;;;;4.48;61.94;101843.58;107129;1263;124365;-79
2023/04/02 11:58:41;;;;;;;;;;;;;;;4.50;62.11;101861.80;107404;1262;64851;-79
2023/04/02 12:01:13;;;;;;;;;;;;;;;4.55;61.49;101862.27;107669;1261;70840;-79
2023/04/02 12:03:52;;;;;;;;;;;;;;;4.54;61.45;101870.92;107338;1262;124237;-79
2023/04/02 12:06:38;;;;;;;;;;;;;;;4.52;60.76;101885.20;107087;1262;62022;-79
2023/04/02 12:09:14;;;;;;;;;;;;;;;4.47;60.69;101873.59;107314;1260;124309;-79
2023/04/02 12:11:41;;;;;;;;;;;;;;;4.48;61.09;101872.40;107602;1262;65859;-79
2023/04/02 12:14:27;;;;;;;;;;;;;;;4.54;61.39;101880.30;107519;1261;124891;-79
2023/04/02 12:16:55;;;;;;;;;;;;;;;4.66;61.28;101890.84;107693;1261;63351;-80
2023/04/02 12:19:23;;;;;;;;;;;;;;;4.72;60.90;101893.68;107217;1261;60471;-78
2023/04/02 12:21:51;;;;;;;;;;;;;;;4.70;60.77;101901.90;107007;1260;124165;-80
2023/04/02 12:24:20;;;;;;;;;;;;;;;4.62;60.75;101895.61;107298;1266;65609;-78
2023/04/02 12:26:47;;;;;;;;;;;;;;;4.58;60.10;101905.61;107621;1261;124663;-81
2023/04/02 12:29:20;;;;;;;;;;;;;;;4.55;60.18;101910.30;107683;1256;60400;-80
2023/04/02 12:31:47;;;;;;;;;;;;;;;4.60;60.22;101914.98;107546;1260;124864;-80
2023/04/02 12:34:15;;;;;;;;;;;;;;;4.58;59.93;101919.02;107530;1256;74191;-82
2023/04/02 12:36:54;;;;;;;;;;;;;;;4.52;60.33;101938.91;107536;1256;66547;-79
2023/04/02 12:39:21;;;;;;;;;;;;;;;4.52;60.55;101919.80;107588;1257;123174;-78
2023/04/02 12:41:48;;;;;;;;;;;;;;;4.55;60.50;101921.04;107505;1256;60427;-78
2023/04/02 12:44:20;;;;;;;;;;;;;;;4.54;60.43;101923.74;107434;1259;124950;-78
2023/04/02 12:46:48;;;;;;;;;;;;;;;4.49;60.77;101927.92;108848;1255;75813;-79
2023/04/02 12:49:18;;;;;;;;;;;;;;;4.48;60.48;101933.98;108976;1256;67035;-79
2023/04/02 12:51:46;;;;;;;;;;;;;;;4.48;60.16;101945.27;107165;1256;124348;-80
2023/04/02 12:54:14;;;;;;;;;;;;;;;4.40;59.90;101947.13;107645;1256;61875;-78
2023/04/02 12:56:41;;;;;;;;;;;;;;;4.35;60.44;101932.21;107875;1256;124513;-78